sensor_id;sensor_type;location;lat;lon;timestamp;temperature;humidity
27114;DHT22;14648;49.730;8.614;2023-02-24T00:02:04;10.10;62.50
27114;DHT22;14648;49.730;8.614;2023-02-24T00:04:37;10.10;62.60
27114;DHT22;14648;49.730;8.614;2023-02-24T00:07:04;10.10;62.50
27114;DHT22;14648;49.730;8.614;2023-02-24T00:09:34;10.10;62.50
27114;DHT22;14648;49.730;8.614;2023-02-24T00:12:04;10.10;62.50
27114;DHT22;14648;49.730;8.614;2023-02-24T00:14:37;10.10;62.50
27114;DHT22;14648;49.730;8.614;2023-02-24T00:17:04;10.10;62.50
27114;DHT22;14648;49.730;8.614;2023-02-24T00:19:32;10.10;62.50
27114;DHT22;14648;49.730;8.614;2023-02-24T00:22:00;10.10;62.50
27114;DHT22;14648;49.730;8.614;2023-02-24T00:24:26;10.10;62.50
27114;DHT22;14648;49.730;8.614;2023-02-24T00:26:53;10.10;62.50
27114;DHT22;14648;49.730;8.614;2023-02-24T00:29:21;10.10;62.40
27114;DHT22;14648;49.730;8.614;2023-02-24T00:31:56;10.10;62.40
27114;DHT22;14648;49.730;8.614;2023-02-24T00:34:30;10.10;62.40
27114;DHT22;14648;49.730;8.614;2023-02-24T00:36:57;10.10;62.30
27114;DHT22;14648;49.730;8.614;2023-02-24T00:39:22;10.10;62.30
27114;DHT22;14648;49.730;8.614;2023-02-24T00:41:53;10.10;62.30
27114;DHT22;14648;49.730;8.614;2023-02-24T00:44:22;10.10;62.30
27114;DHT22;14648;49.730;8.614;2023-02-24T00:46:48;10.10;62.20
27114;DHT22;14648;49.730;8.614;2023-02-24T00:49:17;10.10;62.20
27114;DHT22;14648;49.730;8.614;2023-02-24T00:51:45;10.10;62.20
27114;DHT22;14648;49.730;8.614;2023-02-24T00:54:13;10.10;62.20
27114;DHT22;14648;49.730;8.614;2023-02-24T00:56:42;10.10;62.20
27114;DHT22;14648;49.730;8.614;2023-02-24T00:59:11;10.10;62.20
27114;DHT22;14648;49.730;8.614;2023-02-24T01:01:40;10.10;62.20
27114;DHT22;14648;49.730;8.614;2023-02-24T01:04:07;10.10;62.20
27114;DHT22;14648;49.730;8.614;2023-02-24T01:06:45;10.10;62.10
27114;DHT22;14648;49.730;8.614;2023-02-24T01:09:15;10.10;62.20
27114;DHT22;14648;49.730;8.614;2023-02-24T01:11:45;10.10;62.10
27114;DHT22;14648;49.730;8.614;2023-02-24T01:14:32;10.10;62.10
27114;DHT22;14648;49.730;8.614;2023-02-24T01:16:59;10.10;62.00
27114;DHT22;14648;49.730;8.614;2023-02-24T01:19:28;10.10;62.10
27114;DHT22;14648;49.730;8.614;2023-02-24T01:22:04;10.10;62.00
27114;DHT22;14648;49.730;8.614;2023-02-24T01:24:35;10.00;62.00
27114;DHT22;14648;49.730;8.614;2023-02-24T01:27:03;10.00;62.00
27114;DHT22;14648;49.730;8.614;2023-02-24T01:29:30;10.10;62.00
27114;DHT22;14648;49.730;8.614;2023-02-24T01:31:56;10.00;61.90
27114;DHT22;14648;49.730;8.614;2023-02-24T01:34:24;10.00;61.90
27114;DHT22;14648;49.730;8.614;2023-02-24T01:36:50;10.10;62.00
27114;DHT22;14648;49.730;8.614;2023-02-24T01:39:16;10.10;62.00
27114;DHT22;14648;49.730;8.614;2023-02-24T01:41:44;10.10;62.10
27114;DHT22;14648;49.730;8.614;2023-02-24T01:46:47;10.00;62.10
27114;DHT22;14648;49.730;8.614;2023-02-24T01:49:34;10.10;62.20
27114;DHT22;14648;49.730;8.614;2023-02-24T01:52:17;10.10;62.30
27114;DHT22;14648;49.730;8.614;2023-02-24T01:54:55;10.10;62.20
27114;DHT22;14648;49.730;8.614;2023-02-24T01:57:25;10.10;62.20
27114;DHT22;14648;49.730;8.614;2023-02-24T01:59:55;10.00;62.00
27114;DHT22;14648;49.730;8.614;2023-02-24T02:02:27;10.10;62.20
27114;DHT22;14648;49.730;8.614;2023-02-24T02:04:53;10.10;62.20
27114;DHT22;14648;49.730;8.614;2023-02-24T02:07:23;10.10;62.20
27114;DHT22;14648;49.730;8.614;2023-02-24T02:09:51;10.10;62.20
27114;DHT22;14648;49.730;8.614;2023-02-24T02:12:20;10.10;62.20
27114;DHT22;14648;49.730;8.614;2023-02-24T02:14:49;10.10;62.20
27114;DHT22;14648;49.730;8.614;2023-02-24T02:23:03;10.00;62.20
27114;DHT22;14648;49.730;8.614;2023-02-24T02:26:21;10.00;62.10
27114;DHT22;14648;49.730;8.614;2023-02-24T02:29:37;10.00;62.00
27114;DHT22;14648;49.730;8.614;2023-02-24T02:35:23;9.90;62.00
27114;DHT22;14648;49.730;8.614;2023-02-24T02:40:48;9.90;62.00
27114;DHT22;14648;49.730;8.614;2023-02-24T02:43:39;9.90;62.80
27114;DHT22;14648;49.730;8.614;2023-02-24T02:46:32;9.90;62.10
27114;DHT22;14648;49.730;8.614;2023-02-24T02:49:11;9.90;62.10
27114;DHT22;14648;49.730;8.614;2023-02-24T02:51:42;9.90;62.10
27114;DHT22;14648;49.730;8.614;2023-02-24T02:54:17;9.90;62.00
27114;DHT22;14648;49.730;8.614;2023-02-24T02:57:08;9.80;62.00
27114;DHT22;14648;49.730;8.614;2023-02-24T02:59:37;9.80;62.00
27114;DHT22;14648;49.730;8.614;2023-02-24T03:02:06;9.90;62.10
27114;DHT22;14648;49.730;8.614;2023-02-24T03:04:46;9.90;62.10
27114;DHT22;14648;49.730;8.614;2023-02-24T03:07:17;9.80;62.00
27114;DHT22;14648;49.730;8.614;2023-02-24T03:09:52;9.80;62.00
27114;DHT22;14648;49.730;8.614;2023-02-24T03:12:25;9.80;62.00
27114;DHT22;14648;49.730;8.614;2023-02-24T03:14:56;9.80;62.00
27114;DHT22;14648;49.730;8.614;2023-02-24T03:17:27;9.80;62.10
27114;DHT22;14648;49.730;8.614;2023-02-24T03:20:04;9.80;62.10
27114;DHT22;14648;49.730;8.614;2023-02-24T03:23:15;9.80;62.00
27114;DHT22;14648;49.730;8.614;2023-02-24T03:25:53;9.80;62.00
27114;DHT22;14648;49.730;8.614;2023-02-24T03:28:46;9.80;62.00
27114;DHT22;14648;49.730;8.614;2023-02-24T03:34:17;9.80;61.90
27114;DHT22;14648;49.730;8.614;2023-02-24T03:36:45;9.80;61.90
27114;DHT22;14648;49.730;8.614;2023-02-24T03:39:11;9.80;61.80
27114;DHT22;14648;49.730;8.614;2023-02-24T03:44:29;9.80;62.00
27114;DHT22;14648;49.730;8.614;2023-02-24T03:46:55;9.80;61.90
27114;DHT22;14648;49.730;8.614;2023-02-24T03:49:21;9.80;61.90
27114;DHT22;14648;49.730;8.614;2023-02-24T03:57:53;9.70;61.90
27114;DHT22;14648;49.730;8.614;2023-02-24T04:00:39;9.70;61.90
27114;DHT22;14648;49.730;8.614;2023-02-24T04:04:02;9.70;62.00
27114;DHT22;14648;49.730;8.614;2023-02-24T04:06:56;9.70;61.90
27114;DHT22;14648;49.730;8.614;2023-02-24T04:09:41;9.70;61.90
27114;DHT22;14648;49.730;8.614;2023-02-24T04:15:40;9.70;61.80
27114;DHT22;14648;49.730;8.614;2023-02-24T04:18:16;9.60;61.80
27114;DHT22;14648;49.730;8.614;2023-02-24T04:20:45;9.60;61.90
27114;DHT22;14648;49.730;8.614;2023-02-24T04:23:20;9.60;61.90
27114;DHT22;14648;49.730;8.614;2023-02-24T04:25:50;9.60;62.00
27114;DHT22;14648;49.730;8.614;2023-02-24T04:28:20;9.60;62.00
27114;DHT22;14648;49.730;8.614;2023-02-24T04:30:51;9.60;62.00
27114;DHT22;14648;49.730;8.614;2023-02-24T04:33:20;9.60;62.00
27114;DHT22;14648;49.730;8.614;2023-02-24T04:35:48;9.60;62.00
27114;DHT22;14648;49.730;8.614;2023-02-24T04:38:18;9.60;62.00
27114;DHT22;14648;49.730;8.614;2023-02-24T04:40:44;9.60;62.00
27114;DHT22;14648;49.730;8.614;2023-02-24T04:43:10;9.60;62.00
27114;DHT22;14648;49.730;8.614;2023-02-24T04:45:37;9.60;62.00
27114;DHT22;14648;49.730;8.614;2023-02-24T04:48:06;9.50;62.00
27114;DHT22;14648;49.730;8.614;2023-02-24T04:50:38;9.50;62.10
27114;DHT22;14648;49.730;8.614;2023-02-24T04:53:08;9.50;62.10
27114;DHT22;14648;49.730;8.614;2023-02-24T04:55:40;9.50;62.20
27114;DHT22;14648;49.730;8.614;2023-02-24T04:58:14;9.50;62.20
27114;DHT22;14648;49.730;8.614;2023-02-24T05:00:45;9.50;62.20
27114;DHT22;14648;49.730;8.614;2023-02-24T05:03:14;9.40;61.90
27114;DHT22;14648;49.730;8.614;2023-02-24T05:05:50;9.50;62.00
27114;DHT22;14648;49.730;8.614;2023-02-24T05:08:21;9.40;62.00
27114;DHT22;14648;49.730;8.614;2023-02-24T05:10:48;9.40;62.10
27114;DHT22;14648;49.730;8.614;2023-02-24T05:13:17;9.40;62.20
27114;DHT22;14648;49.730;8.614;2023-02-24T05:15:45;9.40;62.20
27114;DHT22;14648;49.730;8.614;2023-02-24T05:18:13;9.40;62.10
27114;DHT22;14648;49.730;8.614;2023-02-24T05:20:53;9.40;62.10
27114;DHT22;14648;49.730;8.614;2023-02-24T05:23:44;9.40;62.20
27114;DHT22;14648;49.730;8.614;2023-02-24T05:26:14;9.40;62.10
27114;DHT22;14648;49.730;8.614;2023-02-24T05:28:42;9.30;62.20
27114;DHT22;14648;49.730;8.614;2023-02-24T05:31:11;9.30;62.30
27114;DHT22;14648;49.730;8.614;2023-02-24T05:33:41;9.30;62.40
27114;DHT22;14648;49.730;8.614;2023-02-24T05:36:11;9.20;62.30
27114;DHT22;14648;49.730;8.614;2023-02-24T05:38:45;9.30;62.40
27114;DHT22;14648;49.730;8.614;2023-02-24T05:41:14;9.30;62.40
27114;DHT22;14648;49.730;8.614;2023-02-24T05:43:47;9.30;62.50
27114;DHT22;14648;49.730;8.614;2023-02-24T05:46:26;9.20;62.40
27114;DHT22;14648;49.730;8.614;2023-02-24T05:48:54;9.20;62.50
27114;DHT22;14648;49.730;8.614;2023-02-24T05:51:26;9.20;62.40
27114;DHT22;14648;49.730;8.614;2023-02-24T05:54:07;9.20;62.40
27114;DHT22;14648;49.730;8.614;2023-02-24T05:56:38;9.20;62.50
27114;DHT22;14648;49.730;8.614;2023-02-24T05:59:10;9.20;62.40
27114;DHT22;14648;49.730;8.614;2023-02-24T06:01:40;9.20;62.50
27114;DHT22;14648;49.730;8.614;2023-02-24T06:04:08;9.20;62.60
27114;DHT22;14648;49.730;8.614;2023-02-24T06:06:36;9.20;62.70
27114;DHT22;14648;49.730;8.614;2023-02-24T06:09:05;9.10;62.70
27114;DHT22;14648;49.730;8.614;2023-02-24T06:11:34;9.10;62.70
27114;DHT22;14648;49.730;8.614;2023-02-24T06:14:01;9.10;62.70
27114;DHT22;14648;49.730;8.614;2023-02-24T06:16:32;9.10;62.80
27114;DHT22;14648;49.730;8.614;2023-02-24T06:18:58;9.10;62.70
27114;DHT22;14648;49.730;8.614;2023-02-24T06:21:24;9.10;62.80
27114;DHT22;14648;49.730;8.614;2023-02-24T06:23:54;9.10;62.90
27114;DHT22;14648;49.730;8.614;2023-02-24T06:26:22;9.00;62.90
27114;DHT22;14648;49.730;8.614;2023-02-24T06:28:51;9.00;62.90
27114;DHT22;14648;49.730;8.614;2023-02-24T06:31:18;9.00;63.00
27114;DHT22;14648;49.730;8.614;2023-02-24T06:33:46;9.10;63.00
27114;DHT22;14648;49.730;8.614;2023-02-24T06:36:13;9.10;63.00
27114;DHT22;14648;49.730;8.614;2023-02-24T06:38:39;9.00;62.90
27114;DHT22;14648;49.730;8.614;2023-02-24T06:41:06;9.10;63.00
27114;DHT22;14648;49.730;8.614;2023-02-24T06:43:44;9.00;62.90
27114;DHT22;14648;49.730;8.614;2023-02-24T06:46:14;9.10;63.10
27114;DHT22;14648;49.730;8.614;2023-02-24T06:48:41;9.00;62.90
27114;DHT22;14648;49.730;8.614;2023-02-24T06:51:13;9.00;62.90
27114;DHT22;14648;49.730;8.614;2023-02-24T06:53:41;9.10;63.00
27114;DHT22;14648;49.730;8.614;2023-02-24T06:56:10;9.10;63.00
27114;DHT22;14648;49.730;8.614;2023-02-24T06:58:42;9.10;63.00
27114;DHT22;14648;49.730;8.614;2023-02-24T07:01:14;9.10;63.10
27114;DHT22;14648;49.730;8.614;2023-02-24T07:03:42;9.10;63.00
27114;DHT22;14648;49.730;8.614;2023-02-24T07:06:27;9.10;63.00
27114;DHT22;14648;49.730;8.614;2023-02-24T07:08:57;9.10;63.10
27114;DHT22;14648;49.730;8.614;2023-02-24T07:11:25;9.10;63.10
27114;DHT22;14648;49.730;8.614;2023-02-24T07:13:52;9.20;63.00
27114;DHT22;14648;49.730;8.614;2023-02-24T07:16:20;9.20;62.90
27114;DHT22;14648;49.730;8.614;2023-02-24T07:18:55;9.20;63.00
27114;DHT22;14648;49.730;8.614;2023-02-24T07:21:25;9.20;62.90
27114;DHT22;14648;49.730;8.614;2023-02-24T07:23:55;9.30;63.00
27114;DHT22;14648;49.730;8.614;2023-02-24T07:26:23;9.30;63.00
27114;DHT22;14648;49.730;8.614;2023-02-24T07:28:51;9.30;62.80
27114;DHT22;14648;49.730;8.614;2023-02-24T07:31:20;9.40;62.80
27114;DHT22;14648;49.730;8.614;2023-02-24T07:33:51;9.40;62.80
27114;DHT22;14648;49.730;8.614;2023-02-24T07:36:18;9.40;62.80
27114;DHT22;14648;49.730;8.614;2023-02-24T07:38:52;9.40;62.70
27114;DHT22;14648;49.730;8.614;2023-02-24T07:41:21;9.40;62.80
27114;DHT22;14648;49.730;8.614;2023-02-24T07:43:48;9.40;62.70
27114;DHT22;14648;49.730;8.614;2023-02-24T07:46:20;9.50;62.80
27114;DHT22;14648;49.730;8.614;2023-02-24T07:48:51;9.50;62.80
27114;DHT22;14648;49.730;8.614;2023-02-24T07:51:23;9.50;62.80
27114;DHT22;14648;49.730;8.614;2023-02-24T07:53:58;9.50;62.80
27114;DHT22;14648;49.730;8.614;2023-02-24T07:56:26;9.50;62.70
27114;DHT22;14648;49.730;8.614;2023-02-24T07:58:57;9.50;62.80
27114;DHT22;14648;49.730;8.614;2023-02-24T08:01:35;9.60;62.70
27114;DHT22;14648;49.730;8.614;2023-02-24T08:04:07;9.70;62.70
27114;DHT22;14648;49.730;8.614;2023-02-24T08:06:39;9.70;62.70
27114;DHT22;14648;49.730;8.614;2023-02-24T08:09:17;9.70;62.60
27114;DHT22;14648;49.730;8.614;2023-02-24T08:11:50;9.80;62.60
27114;DHT22;14648;49.730;8.614;2023-02-24T08:14:21;9.80;62.60
27114;DHT22;14648;49.730;8.614;2023-02-24T08:16:53;9.90;62.60
27114;DHT22;14648;49.730;8.614;2023-02-24T08:19:27;9.90;62.60
27114;DHT22;14648;49.730;8.614;2023-02-24T08:22:06;9.90;62.50
27114;DHT22;14648;49.730;8.614;2023-02-24T08:24:46;10.00;62.50
27114;DHT22;14648;49.730;8.614;2023-02-24T08:27:22;10.00;62.40
27114;DHT22;14648;49.730;8.614;2023-02-24T08:29:54;10.10;62.40
27114;DHT22;14648;49.730;8.614;2023-02-24T08:32:23;10.10;62.40
27114;DHT22;14648;49.730;8.614;2023-02-24T08:34:49;10.20;62.40
27114;DHT22;14648;49.730;8.614;2023-02-24T08:37:21;10.20;62.20
27114;DHT22;14648;49.730;8.614;2023-02-24T08:39:49;10.30;62.20
27114;DHT22;14648;49.730;8.614;2023-02-24T08:42:19;10.30;62.00
27114;DHT22;14648;49.730;8.614;2023-02-24T08:44:45;10.40;62.00
27114;DHT22;14648;49.730;8.614;2023-02-24T08:47:15;10.50;62.00
27114;DHT22;14648;49.730;8.614;2023-02-24T08:49:45;10.60;61.90
27114;DHT22;14648;49.730;8.614;2023-02-24T08:52:13;10.70;62.00
27114;DHT22;14648;49.730;8.614;2023-02-24T08:54:42;10.70;61.90
27114;DHT22;14648;49.730;8.614;2023-02-24T08:57:13;10.90;61.80
27114;DHT22;14648;49.730;8.614;2023-02-24T08:59:42;10.90;61.60
27114;DHT22;14648;49.730;8.614;2023-02-24T09:02:19;11.00;61.40
27114;DHT22;14648;49.730;8.614;2023-02-24T09:04:49;11.10;61.20
27114;DHT22;14648;49.730;8.614;2023-02-24T09:07:25;11.20;61.10
27114;DHT22;14648;49.730;8.614;2023-02-24T09:09:53;11.20;60.80
27114;DHT22;14648;49.730;8.614;2023-02-24T09:12:24;11.30;60.70
27114;DHT22;14648;49.730;8.614;2023-02-24T09:15:03;11.30;60.50
27114;DHT22;14648;49.730;8.614;2023-02-24T09:17:30;11.40;60.40
27114;DHT22;14648;49.730;8.614;2023-02-24T09:20:19;11.40;60.60
27114;DHT22;14648;49.730;8.614;2023-02-24T09:22:57;11.50;60.60
27114;DHT22;14648;49.730;8.614;2023-02-24T09:25:34;11.50;60.20
27114;DHT22;14648;49.730;8.614;2023-02-24T09:30:51;11.70;60.10
27114;DHT22;14648;49.730;8.614;2023-02-24T09:33:39;11.70;59.90
27114;DHT22;14648;49.730;8.614;2023-02-24T09:36:07;11.80;59.70
27114;DHT22;14648;49.730;8.614;2023-02-24T09:38:46;11.80;59.50
27114;DHT22;14648;49.730;8.614;2023-02-24T09:44:54;11.90;59.10
27114;DHT22;14648;49.730;8.614;2023-02-24T09:47:28;11.90;58.90
27114;DHT22;14648;49.730;8.614;2023-02-24T09:52:48;11.90;58.70
27114;DHT22;14648;49.730;8.614;2023-02-24T09:55:32;11.80;58.40
27114;DHT22;14648;49.730;8.614;2023-02-24T10:01:46;11.80;58.20
27114;DHT22;14648;49.730;8.614;2023-02-24T10:04:57;11.90;58.10
27114;DHT22;14648;49.730;8.614;2023-02-24T10:07:34;12.00;58.00
27114;DHT22;14648;49.730;8.614;2023-02-24T10:13:15;12.10;57.70
27114;DHT22;14648;49.730;8.614;2023-02-24T10:15:56;12.20;57.30
27114;DHT22;14648;49.730;8.614;2023-02-24T10:18:42;12.20;57.50
27114;DHT22;14648;49.730;8.614;2023-02-24T10:21:33;12.20;57.00
27114;DHT22;14648;49.730;8.614;2023-02-24T10:24:41;12.30;56.70
27114;DHT22;14648;49.730;8.614;2023-02-24T10:32:55;12.50;56.20
27114;DHT22;14648;49.730;8.614;2023-02-24T10:35:24;12.70;56.10
27114;DHT22;14648;49.730;8.614;2023-02-24T10:38:01;12.80;56.20
27114;DHT22;14648;49.730;8.614;2023-02-24T10:40:52;12.90;55.90
27114;DHT22;14648;49.730;8.614;2023-02-24T10:43:24;13.00;55.50
27114;DHT22;14648;49.730;8.614;2023-02-24T10:45:58;13.10;54.90
27114;DHT22;14648;49.730;8.614;2023-02-24T10:48:48;13.10;54.60
27114;DHT22;14648;49.730;8.614;2023-02-24T10:51:31;13.10;54.00
27114;DHT22;14648;49.730;8.614;2023-02-24T10:57:01;13.10;53.20
27114;DHT22;14648;49.730;8.614;2023-02-24T10:59:58;13.10;53.60
27114;DHT22;14648;49.730;8.614;2023-02-24T11:02:48;13.10;52.90
27114;DHT22;14648;49.730;8.614;2023-02-24T11:05:35;13.10;53.10
27114;DHT22;14648;49.730;8.614;2023-02-24T11:08:23;13.10;52.90
27114;DHT22;14648;49.730;8.614;2023-02-24T11:11:20;13.20;52.80
27114;DHT22;14648;49.730;8.614;2023-02-24T11:13:59;13.20;52.40
27114;DHT22;14648;49.730;8.614;2023-02-24T11:16:52;13.20;52.20
27114;DHT22;14648;49.730;8.614;2023-02-24T11:19:48;13.30;52.20
27114;DHT22;14648;49.730;8.614;2023-02-24T11:22:22;13.20;52.00
27114;DHT22;14648;49.730;8.614;2023-02-24T11:24:52;13.30;52.50
27114;DHT22;14648;49.730;8.614;2023-02-24T11:27:21;13.50;52.40
27114;DHT22;14648;49.730;8.614;2023-02-24T11:30:07;13.50;51.90
27114;DHT22;14648;49.730;8.614;2023-02-24T11:32:58;13.50;51.80
27114;DHT22;14648;49.730;8.614;2023-02-24T11:41:48;13.40;51.30
27114;DHT22;14648;49.730;8.614;2023-02-24T11:44:45;13.30;51.10
27114;DHT22;14648;49.730;8.614;2023-02-24T11:47:33;13.20;51.00
27114;DHT22;14648;49.730;8.614;2023-02-24T11:52:51;13.20;51.20
27114;DHT22;14648;49.730;8.614;2023-02-24T11:55:40;13.30;51.30
27114;DHT22;14648;49.730;8.614;2023-02-24T11:58:17;13.40;50.80
27114;DHT22;14648;49.730;8.614;2023-02-24T12:00:58;13.60;50.80
27114;DHT22;14648;49.730;8.614;2023-02-24T12:03:34;13.70;50.60
27114;DHT22;14648;49.730;8.614;2023-02-24T12:06:26;13.90;50.60
27114;DHT22;14648;49.730;8.614;2023-02-24T12:08:59;13.90;49.90
27114;DHT22;14648;49.730;8.614;2023-02-24T12:11:44;13.90;49.60
27114;DHT22;14648;49.730;8.614;2023-02-24T12:14:25;13.80;49.60
27114;DHT22;14648;49.730;8.614;2023-02-24T12:20:02;13.50;49.60
27114;DHT22;14648;49.730;8.614;2023-02-24T12:22:45;13.50;50.10
27114;DHT22;14648;49.730;8.614;2023-02-24T12:25:19;13.70;50.00
27114;DHT22;14648;49.730;8.614;2023-02-24T12:28:14;13.90;50.30
27114;DHT22;14648;49.730;8.614;2023-02-24T12:37:13;14.50;49.40
27114;DHT22;14648;49.730;8.614;2023-02-24T12:40:14;14.70;49.00
27114;DHT22;14648;49.730;8.614;2023-02-24T12:42:56;14.90;48.30
27114;DHT22;14648;49.730;8.614;2023-02-24T12:51:41;14.80;47.20
27114;DHT22;14648;49.730;8.614;2023-02-24T13:00:45;14.30;47.40
27114;DHT22;14648;49.730;8.614;2023-02-24T13:14:21;15.10;46.70
27114;DHT22;14648;49.730;8.614;2023-02-24T13:16:50;15.30;46.10
27114;DHT22;14648;49.730;8.614;2023-02-24T13:19:37;15.30;45.70
27114;DHT22;14648;49.730;8.614;2023-02-24T13:22:17;15.20;45.30
27114;DHT22;14648;49.730;8.614;2023-02-24T13:27:25;14.90;44.60
27114;DHT22;14648;49.730;8.614;2023-02-24T13:30:03;14.80;44.40
27114;DHT22;14648;49.730;8.614;2023-02-24T13:32:38;14.80;43.90
27114;DHT22;14648;49.730;8.614;2023-02-24T13:37:45;14.70;43.70
27114;DHT22;14648;49.730;8.614;2023-02-24T13:42:42;14.70;43.50
27114;DHT22;14648;49.730;8.614;2023-02-24T13:54:21;14.60;41.90
27114;DHT22;14648;49.730;8.614;2023-02-24T13:57:40;14.40;41.80
27114;DHT22;14648;49.730;8.614;2023-02-24T14:03:41;14.00;42.30
27114;DHT22;14648;49.730;8.614;2023-02-24T14:06:25;14.00;42.30
27114;DHT22;14648;49.730;8.614;2023-02-24T14:08:56;14.00;42.00
27114;DHT22;14648;49.730;8.614;2023-02-24T14:11:26;14.00;42.30
27114;DHT22;14648;49.730;8.614;2023-02-24T14:13:56;14.00;42.00
27114;DHT22;14648;49.730;8.614;2023-02-24T14:16:25;13.90;41.90
27114;DHT22;14648;49.730;8.614;2023-02-24T14:18:55;13.80;42.00
27114;DHT22;14648;49.730;8.614;2023-02-24T14:21:25;13.80;41.90
27114;DHT22;14648;49.730;8.614;2023-02-24T14:24:03;13.80;41.80
27114;DHT22;14648;49.730;8.614;2023-02-24T14:26:52;13.80;41.50
27114;DHT22;14648;49.730;8.614;2023-02-24T14:29:25;13.70;41.40
27114;DHT22;14648;49.730;8.614;2023-02-24T14:31:56;13.60;41.10
27114;DHT22;14648;49.730;8.614;2023-02-24T14:34:27;13.60;41.00
27114;DHT22;14648;49.730;8.614;2023-02-24T14:36:56;13.60;40.40
27114;DHT22;14648;49.730;8.614;2023-02-24T14:39:30;13.40;40.30
27114;DHT22;14648;49.730;8.614;2023-02-24T14:44:57;13.30;39.70
27114;DHT22;14648;49.730;8.614;2023-02-24T14:47:26;13.20;39.80
27114;DHT22;14648;49.730;8.614;2023-02-24T14:49:58;13.10;39.80
27114;DHT22;14648;49.730;8.614;2023-02-24T14:52:33;13.00;39.70
27114;DHT22;14648;49.730;8.614;2023-02-24T14:55:21;12.90;39.20
27114;DHT22;14648;49.730;8.614;2023-02-24T15:01:02;12.80;39.30
27114;DHT22;14648;49.730;8.614;2023-02-24T15:03:45;12.70;39.40
27114;DHT22;14648;49.730;8.614;2023-02-24T15:06:28;12.60;39.30
27114;DHT22;14648;49.730;8.614;2023-02-24T15:09:17;12.50;39.10
27114;DHT22;14648;49.730;8.614;2023-02-24T15:11:46;12.40;39.10
27114;DHT22;14648;49.730;8.614;2023-02-24T15:14:30;12.40;39.50
27114;DHT22;14648;49.730;8.614;2023-02-24T15:17:03;12.40;39.30
27114;DHT22;14648;49.730;8.614;2023-02-24T15:19:40;12.30;39.30
27114;DHT22;14648;49.730;8.614;2023-02-24T15:22:31;12.30;39.40
27114;DHT22;14648;49.730;8.614;2023-02-24T15:28:04;12.30;39.50
27114;DHT22;14648;49.730;8.614;2023-02-24T15:30:38;12.20;39.50
27114;DHT22;14648;49.730;8.614;2023-02-24T15:33:22;12.20;39.60
27114;DHT22;14648;49.730;8.614;2023-02-24T15:35:57;12.30;39.60
27114;DHT22;14648;49.730;8.614;2023-02-24T15:38:28;12.30;39.70
27114;DHT22;14648;49.730;8.614;2023-02-24T15:40:58;12.30;39.70
27114;DHT22;14648;49.730;8.614;2023-02-24T15:43:35;12.30;40.40
27114;DHT22;14648;49.730;8.614;2023-02-24T15:48:44;12.40;39.70
27114;DHT22;14648;49.730;8.614;2023-02-24T15:51:41;12.40;39.80
27114;DHT22;14648;49.730;8.614;2023-02-24T15:54:34;12.40;39.70
27114;DHT22;14648;49.730;8.614;2023-02-24T15:57:01;12.30;39.70
27114;DHT22;14648;49.730;8.614;2023-02-24T15:59:30;12.30;39.80
27114;DHT22;14648;49.730;8.614;2023-02-24T16:01:56;12.20;39.80
27114;DHT22;14648;49.730;8.614;2023-02-24T16:04:22;12.10;40.50
27114;DHT22;14648;49.730;8.614;2023-02-24T16:06:51;12.10;39.80
27114;DHT22;14648;49.730;8.614;2023-02-24T16:09:33;12.00;39.70
27114;DHT22;14648;49.730;8.614;2023-02-24T16:12:09;11.90;40.00
27114;DHT22;14648;49.730;8.614;2023-02-24T16:14:38;11.90;40.10
27114;DHT22;14648;49.730;8.614;2023-02-24T16:17:08;11.80;40.10
27114;DHT22;14648;49.730;8.614;2023-02-24T16:19:43;11.70;40.00
27114;DHT22;14648;49.730;8.614;2023-02-24T16:22:09;11.60;40.10
27114;DHT22;14648;49.730;8.614;2023-02-24T16:24:38;11.60;40.10
27114;DHT22;14648;49.730;8.614;2023-02-24T16:27:04;11.50;40.10
27114;DHT22;14648;49.730;8.614;2023-02-24T16:29:30;11.40;40.00
27114;DHT22;14648;49.730;8.614;2023-02-24T16:31:56;11.40;40.20
27114;DHT22;14648;49.730;8.614;2023-02-24T16:34:21;11.30;40.30
27114;DHT22;14648;49.730;8.614;2023-02-24T16:36:47;11.30;40.30
27114;DHT22;14648;49.730;8.614;2023-02-24T16:39:13;11.20;40.30
27114;DHT22;14648;49.730;8.614;2023-02-24T16:41:39;11.10;40.50
27114;DHT22;14648;49.730;8.614;2023-02-24T16:44:05;11.10;40.50
27114;DHT22;14648;49.730;8.614;2023-02-24T16:46:34;11.10;40.70
27114;DHT22;14648;49.730;8.614;2023-02-24T16:49:06;11.10;40.90
27114;DHT22;14648;49.730;8.614;2023-02-24T16:51:33;11.10;40.80
27114;DHT22;14648;49.730;8.614;2023-02-24T16:54:00;11.00;40.60
27114;DHT22;14648;49.730;8.614;2023-02-24T16:56:26;11.00;40.80
27114;DHT22;14648;49.730;8.614;2023-02-24T16:58:51;10.90;40.50
27114;DHT22;14648;49.730;8.614;2023-02-24T17:01:19;10.90;40.60
27114;DHT22;14648;49.730;8.614;2023-02-24T17:03:47;10.90;40.30
27114;DHT22;14648;49.730;8.614;2023-02-24T17:06:14;10.80;40.10
27114;DHT22;14648;49.730;8.614;2023-02-24T17:08:40;10.80;40.10
27114;DHT22;14648;49.730;8.614;2023-02-24T17:11:19;10.70;40.00
27114;DHT22;14648;49.730;8.614;2023-02-24T17:13:45;10.70;39.90
27114;DHT22;14648;49.730;8.614;2023-02-24T17:16:11;10.70;39.70
27114;DHT22;14648;49.730;8.614;2023-02-24T17:18:37;10.60;39.50
27114;DHT22;14648;49.730;8.614;2023-02-24T17:21:03;10.60;39.30
27114;DHT22;14648;49.730;8.614;2023-02-24T17:23:33;10.50;39.20
27114;DHT22;14648;49.730;8.614;2023-02-24T17:26:01;10.50;39.20
27114;DHT22;14648;49.730;8.614;2023-02-24T17:28:27;10.50;39.20
27114;DHT22;14648;49.730;8.614;2023-02-24T17:30:52;10.50;39.00
27114;DHT22;14648;49.730;8.614;2023-02-24T17:33:18;10.40;39.00
27114;DHT22;14648;49.730;8.614;2023-02-24T17:35:44;10.40;37.90
27114;DHT22;14648;49.730;8.614;2023-02-24T17:38:16;10.40;38.40
27114;DHT22;14648;49.730;8.614;2023-02-24T17:40:44;10.40;38.50
27114;DHT22;14648;49.730;8.614;2023-02-24T17:43:11;10.30;38.70
27114;DHT22;14648;49.730;8.614;2023-02-24T17:45:40;10.30;38.60
27114;DHT22;14648;49.730;8.614;2023-02-24T17:48:09;10.30;38.70
27114;DHT22;14648;49.730;8.614;2023-02-24T17:50:36;10.20;38.80
27114;DHT22;14648;49.730;8.614;2023-02-24T17:53:02;10.10;39.40
27114;DHT22;14648;49.730;8.614;2023-02-24T17:55:27;10.00;39.80
27114;DHT22;14648;49.730;8.614;2023-02-24T17:57:53;9.90;40.40
27114;DHT22;14648;49.730;8.614;2023-02-24T18:00:19;9.70;41.10
27114;DHT22;14648;49.730;8.614;2023-02-24T18:02:45;9.60;41.60
27114;DHT22;14648;49.730;8.614;2023-02-24T18:05:13;9.60;42.30
27114;DHT22;14648;49.730;8.614;2023-02-24T18:07:39;9.40;42.70
27114;DHT22;14648;49.730;8.614;2023-02-24T18:10:05;9.40;43.30
27114;DHT22;14648;49.730;8.614;2023-02-24T18:12:32;9.30;43.80
27114;DHT22;14648;49.730;8.614;2023-02-24T18:14:57;9.20;44.00
27114;DHT22;14648;49.730;8.614;2023-02-24T18:17:23;9.20;44.50
27114;DHT22;14648;49.730;8.614;2023-02-24T18:19:52;9.10;45.10
27114;DHT22;14648;49.730;8.614;2023-02-24T18:22:19;9.10;45.50
27114;DHT22;14648;49.730;8.614;2023-02-24T18:24:45;9.10;50.80
27114;DHT22;14648;49.730;8.614;2023-02-24T18:27:10;9.10;48.80